ePrivacy and GPDR Cookie Consent by Cookie Consent
EmailTwitter


Observations de surface / Canada / CYYZ (71624)

Régions: Québec | Canada | États-Unis | Europe | France | UK | Ailleurs
Station
Affichage
Infos & localisation pour CYYZ (71624) | Aide pour décoder les METARs

Observations prises le 2021-04-20 à 01H00 UTC à TORONTO A, ON (CYYZ)

Etat du ciel: couvert.

Obstacle(s) à la visibilité: faible pluie.

Température: 9.0 Celsius

Point de rosée: 5.0 Celsius

Humidité relative: 76%

Facteur vent: 5.

Facteur vent (rafales): 4.

Vents: Ouest à 31 km/h ou 17 noeuds.

Rafale du vent: 46 km/h ou 25 noeuds.

Pression au niveau moyen de la mer: 100.86 kilopascals.

Calage altimétrique: 100.81 kilopascals ou 29.77 pouces de mercure.

Visibilité horizontale: 15.00 milles terrestres ou 24.00 kilomètres.

Hauteur du plafond: 1372 mètres ( 4500 pieds ).

Observation METAR:

CYYZ 200100Z 27017G25KT 15SM -RA OVC045 09/05 A2977 RMK SC8 SLP086=